Time;durP1;ratioP1;P1;durP2;ratioP2;P2;SDS_P1;SDS_P2;PMS_P1;PMS_P2;Temp;Humidity;BMP_temperature;BMP_pressure;BME280_temperature;BME280_humidity;BME280_pressure;Samples;Min_cycle;Max_cycle;Signal;HPM_P1;HPM_P2
2022/11/04 04:56:12;;;;;;;3.72;0.85;;;10.50;99.90;;;;;;5776646;23;20045;-84
2022/11/04 04:58:38;;;;;;;2.00;0.52;;;10.50;99.90;;;;;;4898820;29;20136;-84
2022/11/04 05:01:07;;;;;;;2.90;0.73;;;10.60;99.90;;;;;;4901893;29;20055;-83
2022/11/04 05:03:34;;;;;;;1.27;0.60;;;10.60;99.90;;;;;;4893170;29;20055;-82
2022/11/04 05:06:06;;;;;;;2.25;0.63;;;10.50;99.90;;;;;;4892489;29;20059;-84
2022/11/04 05:08:34;;;;;;;4.30;0.95;;;10.50;99.90;;;;;;4894547;29;20422;-80
2022/11/04 05:11:00;;;;;;;3.58;0.70;;;10.50;99.90;;;;;;4892670;29;20056;-82
2022/11/04 05:13:28;;;;;;;1.90;0.82;;;10.50;99.90;;;;;;4897826;29;20053;-82
2022/11/04 05:16:01;;;;;;;2.97;0.80;;;10.50;99.90;;;;;;4900245;29;20116;-82
2022/11/04 05:18:28;;;;;;;3.47;0.65;;;10.60;99.90;;;;;;4901437;29;20081;-82
2022/11/04 05:20:55;;;;;;;2.70;0.90;;;10.60;99.90;;;;;;4899210;29;20423;-82
2022/11/04 05:23:22;;;;;;;2.00;0.70;;;10.60;99.90;;;;;;4883133;29;20060;-82
2022/11/04 05:25:50;;;;;;;2.42;0.70;;;10.60;99.90;;;;;;4886208;29;20060;-81
2022/11/04 05:28:18;;;;;;;3.17;0.80;;;10.60;99.90;;;;;;4886993;29;20079;-82
2022/11/04 05:30:44;;;;;;;4.68;0.70;;;10.60;99.90;;;;;;4888671;29;20072;-82
2022/11/04 05:33:14;;;;;;;3.33;0.50;;;10.60;99.90;;;;;;4882604;29;20420;-82
2022/11/04 05:35:41;;;;;;;2.85;0.82;;;10.60;99.90;;;;;;4880686;29;20063;-82
2022/11/04 05:38:07;;;;;;;1.38;0.57;;;10.70;99.90;;;;;;4888781;29;20061;-82
2022/11/04 05:40:34;;;;;;;2.90;0.85;;;10.70;99.90;;;;;;4884158;29;20124;-82
2022/11/04 05:43:01;;;;;;;3.55;0.88;;;10.60;99.90;;;;;;4885420;29;20057;-82
2022/11/04 05:45:29;;;;;;;1.30;0.60;;;10.60;99.90;;;;;;4888267;29;20103;-84
2022/11/04 05:48:01;;;;;;;4.40;0.98;;;10.60;99.90;;;;;;4877703;29;20045;-82
2022/11/04 05:50:30;;;;;;;3.00;0.80;;;10.70;99.90;;;;;;4888936;29;20560;-83
2022/11/04 05:52:58;;;;;;;4.30;1.08;;;10.60;99.90;;;;;;4887023;29;20500;-82
2022/11/04 05:55:27;;;;;;;2.25;0.80;;;10.60;99.90;;;;;;4879383;29;20063;-83
2022/11/04 05:57:56;;;;;;;13.15;1.20;;;10.60;99.90;;;;;;4886212;29;20601;-81
2022/11/04 06:00:25;;;;;;;2.95;1.27;;;10.60;99.90;;;;;;4884071;29;20057;-82
2022/11/04 06:02:53;;;;;;;2.30;1.00;;;10.60;99.90;;;;;;4886779;29;20049;-84
2022/11/04 06:05:20;;;;;;;5.95;1.40;;;10.60;99.90;;;;;;4883626;29;20052;-84
2022/11/04 06:07:47;;;;;;;6.28;1.38;;;10.60;99.90;;;;;;4883797;29;20060;-84
2022/11/04 06:10:15;;;;;;;3.83;0.75;;;10.60;99.90;;;;;;4879799;29;20101;-84
2022/11/04 06:12:42;;;;;;;7.38;1.13;;;10.60;99.90;;;;;;4887366;29;20447;-85
2022/11/04 06:15:09;;;;;;;5.80;2.15;;;10.60;99.90;;;;;;4889428;29;20052;-84
2022/11/04 06:17:36;;;;;;;2.00;0.90;;;10.60;99.90;;;;;;4878852;29;20077;-82
2022/11/04 06:20:05;;;;;;;5.55;0.95;;;10.60;99.90;;;;;;4887892;29;20135;-82
2022/11/04 06:22:32;;;;;;;6.43;1.10;;;10.60;99.90;;;;;;4893224;29;20217;-82
2022/11/04 06:24:59;;;;;;;5.38;1.42;;;10.60;99.90;;;;;;4882094;29;20064;-84
2022/11/04 06:27:27;;;;;;;4.47;1.20;;;10.60;99.90;;;;;;4890620;29;20052;-82
2022/11/04 06:29:54;;;;;;;3.85;0.73;;;10.50;99.90;;;;;;4889564;29;20297;-81
2022/11/04 06:32:21;;;;;;;2.53;0.70;;;10.60;99.90;;;;;;4886958;29;20061;-86
2022/11/04 06:34:48;;;;;;;2.25;0.70;;;10.60;99.90;;;;;;4878700;29;20077;-86
2022/11/04 06:37:15;;;;;;;3.15;0.80;;;10.50;99.90;;;;;;4888718;29;20593;-84
2022/11/04 06:39:42;;;;;;;3.80;1.00;;;10.50;99.90;;;;;;4878944;29;20083;-83
2022/11/04 06:42:09;;;;;;;3.22;0.60;;;10.50;99.90;;;;;;4883912;29;20141;-84
2022/11/04 06:44:36;;;;;;;3.80;0.88;;;10.50;99.90;;;;;;4878341;29;20053;-84
2022/11/04 06:47:02;;;;;;;4.53;0.68;;;10.50;99.90;;;;;;4893654;29;20042;-83
2022/11/04 06:49:29;;;;;;;2.03;0.70;;;10.50;99.90;;;;;;4885101;29;20087;-83
2022/11/04 06:51:57;;;;;;;3.65;0.85;;;10.50;99.90;;;;;;4883150;29;20045;-83
2022/11/04 06:54:25;;;;;;;5.60;0.90;;;10.40;99.90;;;;;;4884395;29;20078;-83
2022/11/04 06:56:52;;;;;;;11.00;3.47;;;10.50;99.90;;;;;;4882916;29;20131;-83
2022/11/04 06:59:20;;;;;;;7.13;2.78;;;10.50;99.90;;;;;;4876943;29;20074;-82
2022/11/04 07:01:49;;;;;;;4.70;2.15;;;10.50;99.90;;;;;;4884688;29;20109;-87
2022/11/04 07:04:16;;;;;;;10.00;2.75;;;10.50;99.90;;;;;;4877665;29;20140;-85
2022/11/04 07:06:43;;;;;;;10.30;2.42;;;10.50;99.90;;;;;;4873276;29;20071;-81
2022/11/04 07:09:14;;;;;;;4.50;1.95;;;10.50;99.90;;;;;;4885800;29;20072;-82
2022/11/04 07:11:42;;;;;;;4.57;1.65;;;10.50;99.90;;;;;;4889565;29;20408;-83
2022/11/04 07:14:09;;;;;;;7.25;1.75;;;10.60;99.90;;;;;;4886543;29;20131;-82
2022/11/04 07:16:36;;;;;;;5.68;1.92;;;10.60;99.90;;;;;;4890613;29;20067;-84
2022/11/04 07:19:03;;;;;;;5.18;1.80;;;10.60;99.90;;;;;;4892401;29;20498;-80
2022/11/04 07:21:30;;;;;;;7.32;2.08;;;10.60;99.90;;;;;;4891988;29;20495;-83
2022/11/04 07:23:57;;;;;;;5.40;1.95;;;10.70;99.90;;;;;;4891091;29;20056;-82
2022/11/04 07:26:24;;;;;;;6.20;2.03;;;10.60;99.90;;;;;;4888701;29;20053;-82
2022/11/04 07:28:51;;;;;;;4.78;1.50;;;10.60;99.90;;;;;;4892983;29;20053;-82
2022/11/04 07:31:18;;;;;;;5.50;1.40;;;10.60;99.90;;;;;;4891037;29;20057;-82
2022/11/04 07:33:48;;;;;;;3.88;1.45;;;10.70;99.90;;;;;;4893544;29;20140;-84
2022/11/04 07:36:16;;;;;;;4.00;1.33;;;10.70;99.90;;;;;;4894765;29;20052;-83
2022/11/04 07:38:44;;;;;;;7.93;3.55;;;10.70;99.90;;;;;;4891758;29;20075;-83
2022/11/04 07:41:12;;;;;;;7.10;2.97;;;10.80;99.90;;;;;;4895976;29;20048;-82
2022/11/04 07:43:39;;;;;;;7.30;1.45;;;10.80;99.90;;;;;;4893981;29;20570;-83
2022/11/04 07:46:11;;;;;;;2.17;1.10;;;10.80;99.90;;;;;;4900271;29;20064;-82
2022/11/04 07:48:38;;;;;;;5.32;0.93;;;10.80;99.90;;;;;;4902820;29;20139;-83
2022/11/04 07:51:07;;;;;;;3.67;0.98;;;10.90;99.90;;;;;;4903371;29;20058;-84
2022/11/04 07:53:34;;;;;;;1.48;0.75;;;10.90;99.90;;;;;;4902145;29;20060;-83
2022/11/04 07:56:05;;;;;;;6.57;0.90;;;10.90;99.90;;;;;;4900879;29;20064;-83
2022/11/04 07:58:33;;;;;;;4.93;1.02;;;11.00;99.90;;;;;;4887366;29;20091;-84
2022/11/04 08:01:02;;;;;;;6.78;0.93;;;11.10;99.90;;;;;;4884637;29;20063;-82
2022/11/04 08:03:29;;;;;;;8.65;1.13;;;11.10;99.90;;;;;;4885787;29;20056;-83
2022/11/04 08:06:01;;;;;;;4.80;1.35;;;11.20;99.90;;;;;;4885963;29;20060;-83
2022/11/04 08:08:28;;;;;;;5.65;1.15;;;11.20;99.90;;;;;;4887187;29;20402;-84
2022/11/04 08:10:57;;;;;;;3.13;0.80;;;11.20;99.90;;;;;;4886387;29;20113;-83
2022/11/04 08:13:27;;;;;;;3.65;1.27;;;11.30;99.90;;;;;;4874447;29;20061;-83
2022/11/04 08:15:54;;;;;;;4.55;2.00;;;11.30;99.90;;;;;;4885290;29;20068;-83
2022/11/04 08:18:21;;;;;;;4.35;2.03;;;11.40;99.90;;;;;;4895519;29;20057;-84
2022/11/04 08:20:49;;;;;;;5.75;1.25;;;11.40;99.90;;;;;;4896459;29;20120;-84
2022/11/04 08:23:17;;;;;;;3.95;1.00;;;11.40;99.90;;;;;;4896793;29;20051;-83
2022/11/04 08:25:44;;;;;;;6.90;1.40;;;11.50;99.90;;;;;;4898805;29;20049;-84
2022/11/04 08:28:16;;;;;;;3.25;0.60;;;11.50;99.90;;;;;;4898872;29;20056;-84
2022/11/04 08:30:58;;;;;;;6.88;1.13;;;11.60;99.90;;;;;;4898050;29;20056;-84
2022/11/04 08:33:26;;;;;;;2.40;0.77;;;11.70;99.90;;;;;;4898131;29;20060;-84
2022/11/04 08:35:54;;;;;;;5.57;0.90;;;11.70;99.90;;;;;;4898041;29;20076;-85
2022/11/04 08:38:21;;;;;;;8.23;2.47;;;11.80;99.90;;;;;;4899658;29;20061;-84
2022/11/04 08:40:48;;;;;;;9.93;2.47;;;11.80;99.90;;;;;;4899996;29;20053;-84
2022/11/04 08:43:14;;;;;;;6.65;1.30;;;11.90;99.90;;;;;;4898611;29;20057;-83
2022/11/04 08:45:44;;;;;;;7.88;1.42;;;11.90;99.90;;;;;;4898563;29;20526;-83
2022/11/04 08:48:12;;;;;;;4.65;2.03;;;11.90;99.90;;;;;;4899771;29;20073;-82
2022/11/04 08:50:39;;;;;;;6.75;1.92;;;11.90;99.90;;;;;;4901289;29;20059;-84
2022/11/04 08:53:05;;;;;;;5.55;1.80;;;11.90;99.90;;;;;;4903178;29;20052;-84
2022/11/04 08:55:33;;;;;;;4.57;1.33;;;12.00;99.90;;;;;;4903035;29;20063;-83
2022/11/04 08:58:01;;;;;;;3.20;1.58;;;12.00;99.90;;;;;;4903733;29;20056;-83
2022/11/04 09:00:27;;;;;;;8.25;1.15;;;12.10;99.90;;;;;;4890917;29;20499;-84
2022/11/04 09:02:54;;;;;;;14.45;1.45;;;12.10;99.90;;;;;;4880760;29;20415;-83
2022/11/04 09:05:21;;;;;;;8.93;1.00;;;12.20;99.90;;;;;;4900908;29;20064;-85
2022/11/04 09:07:48;;;;;;;6.65;1.17;;;12.20;99.90;;;;;;4902048;29;20049;-81
2022/11/04 09:10:16;;;;;;;4.43;1.20;;;12.20;99.90;;;;;;4900793;29;20454;-84
2022/11/04 09:12:43;;;;;;;6.60;1.05;;;12.30;99.90;;;;;;4910643;29;20057;-83
2022/11/04 09:15:10;;;;;;;4.20;1.00;;;12.40;99.90;;;;;;4905114;29;20064;-84
2022/11/04 09:17:38;;;;;;;4.95;0.90;;;12.30;99.90;;;;;;4891241;29;20053;-84
2022/11/04 09:20:05;;;;;;;6.50;0.75;;;12.40;99.90;;;;;;4896393;29;20052;-83
2022/11/04 09:22:32;;;;;;;4.72;1.20;;;12.40;99.90;;;;;;4897132;29;20052;-84
2022/11/04 09:24:58;;;;;;;1.15;0.50;;;12.40;99.90;;;;;;4907655;29;20059;-83
2022/11/04 09:27:25;;;;;;;6.75;1.00;;;12.50;99.90;;;;;;4907665;29;20048;-84
2022/11/04 09:29:52;;;;;;;2.97;0.63;;;12.50;99.90;;;;;;4906278;29;20064;-85
2022/11/04 09:32:18;;;;;;;4.30;0.57;;;12.60;99.90;;;;;;4907632;29;20041;-86
2022/11/04 09:34:45;;;;;;;4.43;0.80;;;12.80;99.90;;;;;;4906744;29;20059;-85
2022/11/04 09:37:12;;;;;;;2.55;0.60;;;12.90;99.90;;;;;;4904932;29;20060;-85
2022/11/04 09:39:38;;;;;;;3.50;0.70;;;13.00;99.90;;;;;;4906781;29;20068;-86
2022/11/04 09:42:14;;;;;;;4.07;0.63;;;13.00;99.90;;;;;;4892675;29;20061;-86
2022/11/04 09:45:08;;;;;;;2.55;0.70;;;13.10;99.90;;;;;;4893391;29;20422;-85
2022/11/04 09:47:55;;;;;;;2.88;1.20;;;13.20;99.90;;;;;;4884642;29;20053;-85
2022/11/04 09:50:44;;;;;;;4.80;0.60;;;13.30;99.90;;;;;;4893545;29;20140;-85
2022/11/04 09:53:18;;;;;;;3.47;0.60;;;13.30;99.90;;;;;;4894347;29;20056;-84
2022/11/04 09:55:51;;;;;;;4.05;0.50;;;13.40;99.90;;;;;;4890818;29;20073;-85
2022/11/04 09:58:17;;;;;;;2.65;0.68;;;13.40;99.90;;;;;;4896665;29;20048;-84
2022/11/04 10:00:53;;;;;;;5.30;0.77;;;13.50;99.90;;;;;;4893817;29;20056;-86
2022/11/04 10:03:36;;;;;;;4.70;0.85;;;13.50;99.90;;;;;;4894429;29;20113;-84
2022/11/04 10:06:09;;;;;;;3.45;0.75;;;13.60;99.90;;;;;;4896897;29;20052;-84
2022/11/04 10:08:57;;;;;;;3.78;0.60;;;13.60;99.90;;;;;;4899522;29;20056;-85
2022/11/04 10:11:43;;;;;;;3.30;0.95;;;13.70;99.90;;;;;;4899322;29;20068;-84
2022/11/04 10:14:29;;;;;;;3.30;0.82;;;13.60;99.90;;;;;;4899111;29;20060;-84
2022/11/04 10:17:09;;;;;;;3.60;0.43;;;13.60;99.90;;;;;;4900924;29;20157;-85
2022/11/04 10:19:42;;;;;;;3.70;0.82;;;13.60;99.90;;;;;;4901136;29;20075;-84
2022/11/04 10:22:31;;;;;;;2.40;0.52;;;13.60;99.90;;;;;;4902452;29;20052;-84
2022/11/04 10:25:04;;;;;;;5.47;0.57;;;13.60;99.90;;;;;;4888845;29;20148;-85
2022/11/04 10:27:36;;;;;;;3.58;0.57;;;13.60;99.90;;;;;;4902713;29;20055;-84
2022/11/04 10:30:12;;;;;;;2.20;0.60;;;13.60;99.90;;;;;;4883819;29;20068;-83
2022/11/04 10:32:46;;;;;;;2.85;0.80;;;13.60;99.90;;;;;;4905776;29;20051;-83
2022/11/04 10:35:12;;;;;;;3.42;0.90;;;13.60;99.90;;;;;;4888320;29;20084;-84
2022/11/04 10:37:39;;;;;;;2.88;0.80;;;13.60;99.90;;;;;;4887644;29;20464;-84
2022/11/04 10:40:22;;;;;;;3.33;0.70;;;13.60;99.90;;;;;;4886245;29;20620;-82
2022/11/04 10:42:50;;;;;;;1.75;0.60;;;13.60;99.90;;;;;;4886459;29;20080;-83
2022/11/04 10:45:20;;;;;;;5.13;0.90;;;13.60;99.90;;;;;;4888626;29;20045;-83
2022/11/04 10:47:56;;;;;;;4.28;0.63;;;13.70;99.90;;;;;;4890142;29;20085;-84
2022/11/04 10:50:52;;;;;;;4.03;0.60;;;13.70;99.90;;;;;;4888899;29;20056;-83
2022/11/04 10:53:28;;;;;;;3.80;0.68;;;13.70;99.90;;;;;;4890214;29;20063;-82
2022/11/04 10:56:01;;;;;;;3.60;0.70;;;13.70;99.90;;;;;;4890165;29;20056;-84
2022/11/04 10:58:36;;;;;;;2.63;0.70;;;13.80;99.90;;;;;;4891433;29;20120;-83
2022/11/04 11:01:27;;;;;;;2.70;0.80;;;13.80;99.90;;;;;;4889449;29;20053;-82
2022/11/04 11:03:55;;;;;;;3.17;0.52;;;13.80;99.90;;;;;;4891688;29;20049;-82
2022/11/04 11:06:33;;;;;;;2.45;0.55;;;13.80;99.90;;;;;;4892963;29;20056;-80
2022/11/04 11:09:20;;;;;;;4.63;0.75;;;13.80;99.90;;;;;;4878413;29;20054;-83
2022/11/04 11:11:49;;;;;;;2.03;1.23;;;13.80;99.90;;;;;;4888454;29;20058;-84
2022/11/04 11:14:28;;;;;;;3.13;0.70;;;13.90;99.90;;;;;;4894594;29;20053;-84
2022/11/04 11:17:13;;;;;;;4.78;0.80;;;13.90;99.90;;;;;;4917727;29;20041;-83
2022/11/04 11:19:52;;;;;;;2.88;0.50;;;14.00;99.90;;;;;;4896550;29;20057;-82
2022/11/04 11:22:33;;;;;;;0.82;0.30;;;14.00;99.90;;;;;;4896467;29;20463;-84
2022/11/04 11:25:33;;;;;;;1.63;0.60;;;14.00;99.90;;;;;;4898252;29;20060;-83
2022/11/04 11:28:09;;;;;;;1.98;0.70;;;14.10;99.90;;;;;;4892139;29;20053;-85
2022/11/04 11:30:48;;;;;;;2.83;0.75;;;14.10;99.90;;;;;;4881536;29;20407;-82
2022/11/04 11:33:22;;;;;;;1.80;0.65;;;14.20;99.90;;;;;;4892799;29;20060;-83
2022/11/04 11:36:20;;;;;;;3.17;1.00;;;14.20;99.90;;;;;;4905283;29;20112;-81
2022/11/04 11:39:04;;;;;;;3.35;0.88;;;14.20;99.90;;;;;;4910195;29;20108;-83
2022/11/04 11:41:34;;;;;;;1.88;0.93;;;14.30;99.90;;;;;;4909804;29;20037;-82
2022/11/04 11:44:54;;;;;;;2.28;0.75;;;14.30;99.90;;;;;;4908843;29;20052;-79
2022/11/04 11:47:24;;;;;;;4.43;0.85;;;14.30;99.90;;;;;;4900746;29;20053;-85
2022/11/04 11:50:23;;;;;;;2.58;0.60;;;14.30;99.90;;;;;;4910129;29;20053;-84
2022/11/04 11:52:53;;;;;;;2.60;0.52;;;14.30;99.90;;;;;;4882086;29;20059;-84
2022/11/04 11:55:33;;;;;;;3.63;0.68;;;14.30;99.90;;;;;;4869396;29;20071;-85
2022/11/04 11:58:41;;;;;;;3.25;0.80;;;14.30;99.90;;;;;;4883337;29;20061;-85
2022/11/04 12:01:55;;;;;;;6.32;0.75;;;14.30;99.90;;;;;;4886268;29;20052;-85
2022/11/04 12:04:23;;;;;;;3.80;0.80;;;14.20;99.90;;;;;;4880006;29;20141;-85
2022/11/04 12:07:38;;;;;;;2.03;1.00;;;14.20;99.90;;;;;;4885034;29;20126;-84
2022/11/04 12:10:42;;;;;;;3.17;0.60;;;14.20;99.90;;;;;;4889065;29;20078;-83
2022/11/04 12:13:17;;;;;;;3.30;0.90;;;14.20;99.90;;;;;;4889377;29;20499;-85
2022/11/04 12:15:53;;;;;;;2.30;0.82;;;14.20;99.90;;;;;;4886149;29;20122;-86
2022/11/04 12:18:48;;;;;;;2.10;0.60;;;14.20;99.90;;;;;;4892190;29;20080;-84
2022/11/04 12:21:23;;;;;;;5.40;0.95;;;14.20;99.90;;;;;;4891272;29;20055;-83
2022/11/04 12:23:55;;;;;;;2.15;0.90;;;14.20;99.90;;;;;;4888861;29;20057;-86
2022/11/04 12:26:29;;;;;;;3.55;0.95;;;14.30;99.90;;;;;;4883732;29;20132;-83
2022/11/04 12:29:08;;;;;;;7.82;2.38;;;14.20;99.90;;;;;;4883598;29;20056;-84
2022/11/04 12:31:42;;;;;;;14.70;6.05;;;14.20;99.90;;;;;;4881796;29;20049;-85
2022/11/04 12:34:16;;;;;;;22.27;11.48;;;14.20;99.90;;;;;;4902202;29;20055;-85
2022/11/04 12:37:15;;;;;;;16.00;9.30;;;14.20;99.90;;;;;;4884379;29;20810;-83
2022/11/04 12:39:56;;;;;;;9.02;5.72;;;14.20;99.90;;;;;;4891229;29;20052;-83
2022/11/04 12:42:37;;;;;;;4.90;2.35;;;14.20;99.90;;;;;;4887322;29;20147;-82
2022/11/04 12:45:23;;;;;;;2.30;0.98;;;14.10;99.90;;;;;;4895455;29;20117;-84
2022/11/04 12:47:53;;;;;;;5.88;1.23;;;14.10;99.90;;;;;;4891658;29;20131;-84
2022/11/04 12:50:41;;;;;;;6.25;1.45;;;14.10;99.90;;;;;;4884315;29;20048;-84
2022/11/04 12:53:31;;;;;;;2.15;1.10;;;14.00;99.90;;;;;;4889504;29;20040;-84
2022/11/04 12:56:06;;;;;;;4.68;0.80;;;14.00;99.90;;;;;;4895552;29;20056;-84
2022/11/04 12:59:15;;;;;;;3.60;0.75;;;14.00;99.90;;;;;;4893206;29;20526;-83
2022/11/04 13:01:51;;;;;;;2.92;0.80;;;14.00;99.90;;;;;;4885436;29;20053;-84
2022/11/04 13:04:24;;;;;;;1.92;0.60;;;14.00;99.90;;;;;;4895423;29;20049;-84
2022/11/04 13:07:00;;;;;;;7.82;0.88;;;14.00;99.90;;;;;;4895538;29;20045;-84
2022/11/04 13:09:38;;;;;;;3.33;0.68;;;14.00;99.90;;;;;;4894197;29;20422;-83
2022/11/04 13:12:15;;;;;;;2.13;0.80;;;14.00;99.90;;;;;;4880842;29;20136;-82
2022/11/04 13:14:53;;;;;;;2.75;0.60;;;14.00;99.90;;;;;;4897524;29;20045;-83
2022/11/04 13:17:29;;;;;;;2.40;0.93;;;14.10;99.90;;;;;;4880050;29;20065;-84
2022/11/04 13:20:03;;;;;;;1.30;0.55;;;14.00;99.90;;;;;;4874338;29;20159;-84
2022/11/04 13:22:34;;;;;;;2.38;0.60;;;14.10;99.90;;;;;;4885948;29;20044;-83
2022/11/04 13:25:33;;;;;;;5.63;1.10;;;14.10;99.90;;;;;;4878508;29;20578;-83
2022/11/04 13:28:01;;;;;;;3.22;0.52;;;14.10;99.90;;;;;;4885428;29;20049;-83
2022/11/04 13:30:54;;;;;;;1.92;0.68;;;14.10;99.90;;;;;;4889241;29;20052;-83
2022/11/04 13:33:29;;;;;;;2.70;0.50;;;14.10;99.90;;;;;;4889342;29;20055;-83
2022/11/04 13:36:45;;;;;;;2.67;0.70;;;14.10;99.90;;;;;;4885301;29;20052;-82
2022/11/04 13:39:24;;;;;;;4.30;1.20;;;14.10;99.90;;;;;;4865455;29;20947;-83
2022/11/04 13:42:00;;;;;;;3.92;0.93;;;14.10;99.90;;;;;;4879033;29;20049;-83
2022/11/04 13:44:30;;;;;;;3.95;1.00;;;14.00;99.90;;;;;;4891841;29;20056;-84
2022/11/04 13:47:02;;;;;;;5.05;1.20;;;14.00;99.90;;;;;;4884457;29;20052;-85
2022/11/04 13:49:32;;;;;;;3.95;0.80;;;14.00;99.90;;;;;;4887387;29;20077;-84
2022/11/04 13:52:11;;;;;;;4.97;1.00;;;14.00;99.90;;;;;;4888390;29;20052;-85
2022/11/04 13:54:45;;;;;;;2.58;1.23;;;13.90;99.90;;;;;;4888022;29;20057;-84
2022/11/04 13:57:22;;;;;;;3.50;1.17;;;13.90;99.90;;;;;;4889459;29;20058;-83
2022/11/04 14:00:28;;;;;;;1.85;0.82;;;13.80;99.90;;;;;;4882041;29;20055;-85
2022/11/04 14:03:18;;;;;;;3.05;1.45;;;13.90;99.90;;;;;;4892556;29;20059;-85
2022/11/04 14:06:02;;;;;;;4.18;1.40;;;13.90;99.90;;;;;;4886089;29;20514;-84
2022/11/04 14:08:29;;;;;;;4.18;1.40;;;13.80;99.90;;;;;;4907210;29;20120;-87
2022/11/04 14:10:58;;;;;;;8.27;1.80;;;13.80;99.90;;;;;;4913155;29;20049;-83
2022/11/04 14:13:32;;;;;;;7.50;2.97;;;13.80;99.90;;;;;;4909871;29;20049;-84
2022/11/04 14:16:10;;;;;;;6.05;3.05;;;13.70;99.90;;;;;;4909515;29;20049;-84
2022/11/04 14:18:43;;;;;;;3.15;1.27;;;13.70;99.90;;;;;;4908357;29;20032;-83
2022/11/04 14:21:15;;;;;;;4.95;1.27;;;13.60;99.90;;;;;;4900620;29;20426;-84
2022/11/04 14:23:55;;;;;;;1.90;0.80;;;13.50;99.90;;;;;;4900179;29;20052;-84
2022/11/04 14:26:43;;;;;;;2.75;1.10;;;13.30;99.90;;;;;;4903158;29;20045;-85
2022/11/04 14:29:24;;;;;;;1.67;0.85;;;13.20;99.90;;;;;;4882344;29;20050;-82
2022/11/04 14:31:58;;;;;;;3.60;1.02;;;13.20;99.90;;;;;;4881120;29;20128;-82
2022/11/04 14:34:32;;;;;;;3.05;1.00;;;13.10;99.90;;;;;;4879388;29;20395;-82
2022/11/04 14:37:00;;;;;;;3.25;0.93;;;13.10;99.90;;;;;;4884920;29;20061;-83
2022/11/04 14:39:31;;;;;;;5.72;1.23;;;13.00;99.90;;;;;;4886351;29;20064;-82
2022/11/04 14:42:02;;;;;;;3.25;0.82;;;13.00;99.90;;;;;;4883052;29;20159;-82
2022/11/04 14:44:44;;;;;;;6.57;1.35;;;12.90;99.90;;;;;;4887297;29;20476;-84
2022/11/04 14:47:28;;;;;;;4.32;1.52;;;12.90;99.90;;;;;;4887459;29;20108;-82
2022/11/04 14:49:58;;;;;;;4.53;1.83;;;12.90;99.90;;;;;;4888647;29;20080;-84
2022/11/04 14:52:42;;;;;;;5.68;0.98;;;12.90;99.90;;;;;;4887147;29;20049;-83
2022/11/04 14:55:25;;;;;;;3.95;1.48;;;12.80;99.90;;;;;;4889105;29;20058;-81
2022/11/04 14:57:55;;;;;;;6.20;1.52;;;12.80;99.90;;;;;;4889284;29;20056;-82
2022/11/04 15:00:39;;;;;;;7.90;1.73;;;12.80;99.90;;;;;;4890640;29;20064;-83
2022/11/04 15:03:08;;;;;;;9.73;3.90;;;12.90;99.90;;;;;;4886364;29;20064;-82
2022/11/04 15:05:50;;;;;;;8.63;3.40;;;12.90;99.90;;;;;;4891528;29;20274;-82
2022/11/04 15:08:36;;;;;;;4.00;2.10;;;12.80;99.90;;;;;;4882213;29;20480;-84
2022/11/04 15:11:09;;;;;;;4.88;1.23;;;12.80;99.90;;;;;;4893841;29;20060;-81
2022/11/04 15:13:46;;;;;;;3.53;1.30;;;12.80;99.90;;;;;;4889995;29;20073;-83
2022/11/04 15:16:26;;;;;;;5.05;1.50;;;12.70;99.90;;;;;;4894365;29;20067;-83
2022/11/04 15:18:57;;;;;;;3.83;1.45;;;12.70;99.90;;;;;;4892916;29;20059;-83
2022/11/04 15:21:24;;;;;;;3.38;0.95;;;12.70;99.90;;;;;;4894774;29;20057;-83
2022/11/04 15:23:53;;;;;;;4.88;1.20;;;12.70;99.90;;;;;;4893882;29;20061;-83
2022/11/04 15:26:25;;;;;;;3.65;1.15;;;12.70;99.90;;;;;;4890927;29;20048;-84
2022/11/04 15:29:07;;;;;;;4.20;1.30;;;12.60;99.90;;;;;;4896495;29;20084;-83
2022/11/04 15:31:36;;;;;;;6.32;1.10;;;12.60;99.90;;;;;;4894459;29;20052;-83
2022/11/04 15:34:06;;;;;;;3.33;1.20;;;12.50;99.90;;;;;;4893744;29;20053;-83
2022/11/04 15:36:41;;;;;;;2.63;1.00;;;12.50;99.90;;;;;;4892312;29;20049;-83
2022/11/04 15:39:15;;;;;;;1.42;0.70;;;12.40;99.90;;;;;;4898996;29;20135;-84
2022/11/04 15:44:32;;;;;;;4.63;1.35;;;12.40;99.90;;;;;;4895957;29;20049;-83
2022/11/04 15:47:19;;;;;;;2.90;1.40;;;12.40;99.90;;;;;;4881129;29;20061;-83
2022/11/04 15:49:47;;;;;;;5.32;1.30;;;12.40;99.90;;;;;;4883466;29;20049;-82
2022/11/04 15:52:25;;;;;;;4.68;1.70;;;12.30;99.90;;;;;;4883097;29;20055;-83
2022/11/04 15:54:53;;;;;;;3.25;1.77;;;12.30;99.90;;;;;;4883106;29;20140;-82
2022/11/04 15:57:26;;;;;;;3.13;1.15;;;12.30;99.90;;;;;;4882126;29;20503;-82
2022/11/04 15:59:55;;;;;;;4.28;1.60;;;12.30;99.90;;;;;;4880193;29;20074;-82
2022/11/04 16:02:27;;;;;;;2.08;1.40;;;12.30;99.90;;;;;;4883283;29;20060;-82
2022/11/04 16:05:26;;;;;;;5.80;1.10;;;12.30;99.90;;;;;;4882391;29;20049;-82
2022/11/04 16:07:58;;;;;;;2.20;1.10;;;12.30;99.90;;;;;;4894563;29;20069;-83
2022/11/04 16:10:31;;;;;;;4.35;1.73;;;12.30;99.90;;;;;;4887039;29;20049;-83
2022/11/04 16:13:13;;;;;;;4.30;2.22;;;12.30;99.90;;;;;;4886874;29;20080;-82
2022/11/04 16:15:44;;;;;;;7.00;4.97;;;12.30;99.90;;;;;;4888364;29;20507;-81
2022/11/04 16:18:25;;;;;;;5.88;4.35;;;12.20;99.90;;;;;;4889917;29;20053;-82
2022/11/04 16:20:53;;;;;;;3.15;2.10;;;12.00;99.90;;;;;;4902603;29;20061;-81
2022/11/04 16:23:23;;;;;;;3.05;1.55;;;12.10;99.90;;;;;;4890381;29;20075;-81
2022/11/04 16:26:04;;;;;;;5.00;1.42;;;12.00;99.90;;;;;;4889353;29;20545;-83
2022/11/04 16:28:36;;;;;;;4.35;2.05;;;12.00;99.90;;;;;;4891981;29;20054;-82
2022/11/04 16:31:24;;;;;;;4.95;1.30;;;12.00;99.90;;;;;;4888461;29;20519;-83
2022/11/04 16:33:51;;;;;;;4.07;2.40;;;12.00;99.90;;;;;;4890800;29;20055;-83
2022/11/04 16:36:24;;;;;;;1.67;1.40;;;11.90;99.90;;;;;;4894188;29;20092;-83
2022/11/04 16:38:57;;;;;;;4.20;1.70;;;11.90;99.90;;;;;;4882449;29;20060;-85
2022/11/04 16:41:26;;;;;;;6.80;1.50;;;11.90;99.90;;;;;;4881137;29;20070;-84
2022/11/04 16:43:54;;;;;;;3.10;1.70;;;11.80;99.90;;;;;;4898225;29;20060;-85
2022/11/04 16:46:21;;;;;;;6.90;2.15;;;11.80;99.90;;;;;;4900748;29;20053;-84
2022/11/04 16:48:48;;;;;;;5.47;2.47;;;11.80;99.90;;;;;;4889811;29;20049;-83
2022/11/04 16:51:22;;;;;;;3.90;2.08;;;11.80;99.90;;;;;;4885544;29;20056;-83
2022/11/04 16:53:52;;;;;;;4.93;2.30;;;11.80;99.90;;;;;;4898288;29;20048;-84
2022/11/04 16:56:22;;;;;;;7.20;3.78;;;11.80;99.90;;;;;;4913593;29;20061;-83
2022/11/04 16:58:49;;;;;;;4.10;2.90;;;11.80;99.90;;;;;;4900812;29;20060;-84
2022/11/04 17:01:17;;;;;;;8.50;3.40;;;11.80;99.90;;;;;;4902315;29;20064;-83
2022/11/04 17:03:44;;;;;;;2.92;1.90;;;11.80;99.90;;;;;;4886105;29;20065;-83
2022/11/04 17:06:13;;;;;;;4.13;2.55;;;11.80;99.90;;;;;;4888530;29;20057;-82
2022/11/04 17:08:40;;;;;;;8.43;4.88;;;11.70;99.90;;;;;;4900495;29;20113;-80
2022/11/04 17:11:09;;;;;;;11.43;4.82;;;11.70;99.90;;;;;;4902615;29;20418;-84
2022/11/04 17:13:36;;;;;;;8.45;4.78;;;11.70;99.90;;;;;;4897004;29;20108;-84
2022/11/04 17:16:05;;;;;;;8.60;4.65;;;11.70;99.90;;;;;;4895667;29;20063;-84
2022/11/04 17:18:33;;;;;;;8.45;3.58;;;11.70;99.90;;;;;;4890437;29;20423;-84
2022/11/04 17:21:04;;;;;;;6.65;2.85;;;11.70;99.90;;;;;;4889466;29;20502;-84
2022/11/04 17:23:30;;;;;;;6.88;2.83;;;11.70;99.90;;;;;;4893416;29;20068;-84
2022/11/04 17:25:57;;;;;;;7.72;2.83;;;11.70;99.90;;;;;;4885604;29;20052;-86
2022/11/04 17:28:25;;;;;;;9.98;5.82;;;11.70;99.90;;;;;;4889216;29;20049;-85
2022/11/04 17:30:52;;;;;;;7.57;5.07;;;11.70;99.90;;;;;;4887349;29;20049;-85
2022/11/04 17:33:19;;;;;;;6.05;1.80;;;11.70;99.90;;;;;;4892250;29;20128;-85
2022/11/04 17:35:49;;;;;;;5.03;2.67;;;11.70;99.90;;;;;;4892387;29;20049;-83
2022/11/04 17:38:16;;;;;;;3.95;2.13;;;11.70;99.90;;;;;;4888218;29;20512;-84
2022/11/04 17:46:33;;;;;;;2.47;1.85;;;11.50;99.90;;;;;;4890712;29;20053;-85
2022/11/04 17:49:10;;;;;;;4.72;2.10;;;11.50;99.90;;;;;;4892649;29;20072;-84
2022/11/04 17:51:38;;;;;;;3.83;1.83;;;11.50;99.90;;;;;;4895598;29;20068;-84
2022/11/04 17:54:05;;;;;;;3.08;1.67;;;11.40;99.90;;;;;;4897804;29;20085;-83
2022/11/04 17:56:32;;;;;;;2.78;1.30;;;11.40;99.90;;;;;;4896690;29;20400;-84
2022/11/04 17:59:00;;;;;;;3.60;2.22;;;11.40;99.90;;;;;;4897649;29;20071;-84
2022/11/04 18:01:29;;;;;;;2.80;2.20;;;11.40;99.90;;;;;;4899244;29;20080;-84
2022/11/04 18:03:57;;;;;;;4.30;1.83;;;11.30;99.90;;;;;;4892216;29;20060;-84
2022/11/04 18:06:25;;;;;;;3.63;2.40;;;11.30;99.90;;;;;;4884096;29;20104;-85
2022/11/04 18:08:53;;;;;;;6.55;3.83;;;11.30;99.90;;;;;;4882356;29;20045;-83
2022/11/04 18:14:07;;;;;;;2.83;1.70;;;11.20;99.90;;;;;;4902433;29;20104;-84
2022/11/04 18:16:44;;;;;;;2.28;1.75;;;11.20;99.90;;;;;;4895988;29;20143;-84
2022/11/04 18:19:11;;;;;;;1.50;1.30;;;11.20;99.90;;;;;;4903228;29;20064;-85
2022/11/04 18:21:38;;;;;;;1.60;0.80;;;11.20;99.90;;;;;;4899920;29;20052;-83
2022/11/04 18:24:05;;;;;;;1.92;1.08;;;11.20;99.90;;;;;;4886080;29;20061;-83